sensor_id;sensor_type;location;lat;lon;timestamp;temperature;humidity
4604;DHT22;2314;48.272;11.562;2023-12-14T00:01:53;5.70;99.90
4604;DHT22;2314;48.272;11.562;2023-12-14T00:04:19;5.70;99.90
4604;DHT22;2314;48.272;11.562;2023-12-14T00:10:28;5.70;99.90
4604;DHT22;2314;48.272;11.562;2023-12-14T00:12:55;5.70;99.90
4604;DHT22;2314;48.272;11.562;2023-12-14T00:15:22;5.70;99.90
4604;DHT22;2314;48.272;11.562;2023-12-14T00:17:49;5.70;99.90
4604;DHT22;2314;48.272;11.562;2023-12-14T00:20:16;5.70;99.90
4604;DHT22;2314;48.272;11.562;2023-12-14T00:22:43;5.70;99.90
4604;DHT22;2314;48.272;11.562;2023-12-14T00:25:10;5.70;99.90
4604;DHT22;2314;48.272;11.562;2023-12-14T00:27:39;5.70;99.90
4604;DHT22;2314;48.272;11.562;2023-12-14T00:30:07;5.70;99.90
4604;DHT22;2314;48.272;11.562;2023-12-14T00:32:35;5.70;99.90
4604;DHT22;2314;48.272;11.562;2023-12-14T00:35:02;5.60;99.90
4604;DHT22;2314;48.272;11.562;2023-12-14T00:37:29;5.60;99.90
4604;DHT22;2314;48.272;11.562;2023-12-14T00:39:56;5.60;99.90
4604;DHT22;2314;48.272;11.562;2023-12-14T00:42:23;5.60;99.90
4604;DHT22;2314;48.272;11.562;2023-12-14T00:44:52;5.70;99.90
4604;DHT22;2314;48.272;11.562;2023-12-14T00:47:19;5.70;99.90
4604;DHT22;2314;48.272;11.562;2023-12-14T00:49:46;5.70;99.90
4604;DHT22;2314;48.272;11.562;2023-12-14T00:52:13;5.70;99.90
4604;DHT22;2314;48.272;11.562;2023-12-14T00:54:40;5.70;99.90
4604;DHT22;2314;48.272;11.562;2023-12-14T00:57:07;5.70;99.90
4604;DHT22;2314;48.272;11.562;2023-12-14T00:59:34;5.70;99.90
4604;DHT22;2314;48.272;11.562;2023-12-14T01:02:02;5.70;99.90
4604;DHT22;2314;48.272;11.562;2023-12-14T01:04:29;5.70;99.90
4604;DHT22;2314;48.272;11.562;2023-12-14T01:06:56;5.70;99.90
4604;DHT22;2314;48.272;11.562;2023-12-14T01:09:23;5.60;99.90
4604;DHT22;2314;48.272;11.562;2023-12-14T01:11:50;5.60;99.90
4604;DHT22;2314;48.272;11.562;2023-12-14T01:14:17;5.70;99.90
4604;DHT22;2314;48.272;11.562;2023-12-14T01:16:44;5.70;99.90
4604;DHT22;2314;48.272;11.562;2023-12-14T01:19:12;5.70;99.90
4604;DHT22;2314;48.272;11.562;2023-12-14T01:21:39;5.60;99.90
4604;DHT22;2314;48.272;11.562;2023-12-14T01:24:06;5.70;99.90
4604;DHT22;2314;48.272;11.562;2023-12-14T01:26:33;5.60;99.90
4604;DHT22;2314;48.272;11.562;2023-12-14T01:29:00;5.70;99.90
4604;DHT22;2314;48.272;11.562;2023-12-14T01:31:27;5.70;99.90
4604;DHT22;2314;48.272;11.562;2023-12-14T01:33:54;5.70;99.90
4604;DHT22;2314;48.272;11.562;2023-12-14T01:36:23;5.70;99.90
4604;DHT22;2314;48.272;11.562;2023-12-14T01:38:51;5.70;99.90
4604;DHT22;2314;48.272;11.562;2023-12-14T01:41:18;5.70;99.90
4604;DHT22;2314;48.272;11.562;2023-12-14T01:43:45;5.70;99.90
4604;DHT22;2314;48.272;11.562;2023-12-14T01:46:12;5.70;99.90
4604;DHT22;2314;48.272;11.562;2023-12-14T01:48:40;5.70;99.90
4604;DHT22;2314;48.272;11.562;2023-12-14T01:51:07;5.60;99.90
4604;DHT22;2314;48.272;11.562;2023-12-14T01:53:36;5.60;99.90
4604;DHT22;2314;48.272;11.562;2023-12-14T01:56:03;5.60;99.90
4604;DHT22;2314;48.272;11.562;2023-12-14T01:58:31;5.60;99.90
4604;DHT22;2314;48.272;11.562;2023-12-14T02:01:03;5.60;99.90
4604;DHT22;2314;48.272;11.562;2023-12-14T02:03:32;5.60;99.90
4604;DHT22;2314;48.272;11.562;2023-12-14T02:05:59;5.60;99.90
4604;DHT22;2314;48.272;11.562;2023-12-14T02:08:27;5.50;99.90
4604;DHT22;2314;48.272;11.562;2023-12-14T02:10:55;5.50;99.90
4604;DHT22;2314;48.272;11.562;2023-12-14T02:13:22;5.50;99.90
4604;DHT22;2314;48.272;11.562;2023-12-14T02:15:51;5.50;99.90
4604;DHT22;2314;48.272;11.562;2023-12-14T02:18:19;5.40;99.90
4604;DHT22;2314;48.272;11.562;2023-12-14T02:20:46;5.40;99.90
4604;DHT22;2314;48.272;11.562;2023-12-14T02:23:14;5.40;99.90
4604;DHT22;2314;48.272;11.562;2023-12-14T02:25:41;5.40;99.90
4604;DHT22;2314;48.272;11.562;2023-12-14T02:28:08;5.40;99.90
4604;DHT22;2314;48.272;11.562;2023-12-14T02:30:35;5.40;99.90
4604;DHT22;2314;48.272;11.562;2023-12-14T02:33:02;5.40;99.90
4604;DHT22;2314;48.272;11.562;2023-12-14T02:35:29;5.40;99.90
4604;DHT22;2314;48.272;11.562;2023-12-14T02:37:56;5.40;99.90
4604;DHT22;2314;48.272;11.562;2023-12-14T02:40:24;5.40;99.90
4604;DHT22;2314;48.272;11.562;2023-12-14T02:42:51;5.40;99.90
4604;DHT22;2314;48.272;11.562;2023-12-14T02:45:18;5.40;99.90
4604;DHT22;2314;48.272;11.562;2023-12-14T02:47:45;5.40;99.90
4604;DHT22;2314;48.272;11.562;2023-12-14T02:50:14;5.40;99.90
4604;DHT22;2314;48.272;11.562;2023-12-14T02:52:41;5.40;99.90
4604;DHT22;2314;48.272;11.562;2023-12-14T02:55:08;5.40;99.90
4604;DHT22;2314;48.272;11.562;2023-12-14T02:57:36;5.40;99.90
4604;DHT22;2314;48.272;11.562;2023-12-14T03:00:04;5.50;99.90
4604;DHT22;2314;48.272;11.562;2023-12-14T03:02:32;5.40;99.90
4604;DHT22;2314;48.272;11.562;2023-12-14T03:04:59;5.50;99.90
4604;DHT22;2314;48.272;11.562;2023-12-14T03:07:26;5.50;99.90
4604;DHT22;2314;48.272;11.562;2023-12-14T03:09:53;5.50;99.90
4604;DHT22;2314;48.272;11.562;2023-12-14T03:12:20;5.50;99.90
4604;DHT22;2314;48.272;11.562;2023-12-14T03:14:48;5.50;99.90
4604;DHT22;2314;48.272;11.562;2023-12-14T03:17:15;5.50;99.90
4604;DHT22;2314;48.272;11.562;2023-12-14T03:19:42;5.50;99.90
4604;DHT22;2314;48.272;11.562;2023-12-14T03:22:09;5.50;99.90
4604;DHT22;2314;48.272;11.562;2023-12-14T03:24:36;5.50;99.90
4604;DHT22;2314;48.272;11.562;2023-12-14T03:27:04;5.50;99.90
4604;DHT22;2314;48.272;11.562;2023-12-14T03:29:31;5.50;99.90
4604;DHT22;2314;48.272;11.562;2023-12-14T03:32:00;5.50;99.90
4604;DHT22;2314;48.272;11.562;2023-12-14T03:34:27;5.50;99.90
4604;DHT22;2314;48.272;11.562;2023-12-14T03:36:53;5.50;99.90
4604;DHT22;2314;48.272;11.562;2023-12-14T03:39:20;5.50;99.90
4604;DHT22;2314;48.272;11.562;2023-12-14T03:41:47;5.50;99.90
4604;DHT22;2314;48.272;11.562;2023-12-14T03:44:14;5.50;99.90
4604;DHT22;2314;48.272;11.562;2023-12-14T03:46:41;5.50;99.90
4604;DHT22;2314;48.272;11.562;2023-12-14T03:49:09;5.50;99.90
4604;DHT22;2314;48.272;11.562;2023-12-14T03:51:36;5.50;99.90
4604;DHT22;2314;48.272;11.562;2023-12-14T03:54:03;5.50;99.90
4604;DHT22;2314;48.272;11.562;2023-12-14T03:56:30;5.50;99.90
4604;DHT22;2314;48.272;11.562;2023-12-14T03:58:57;5.50;99.90
4604;DHT22;2314;48.272;11.562;2023-12-14T04:01:24;5.40;99.90
4604;DHT22;2314;48.272;11.562;2023-12-14T04:03:51;5.40;99.90
4604;DHT22;2314;48.272;11.562;2023-12-14T04:06:20;5.40;99.90
4604;DHT22;2314;48.272;11.562;2023-12-14T04:08:46;5.40;99.90
4604;DHT22;2314;48.272;11.562;2023-12-14T04:11:13;5.40;99.90
4604;DHT22;2314;48.272;11.562;2023-12-14T04:13:40;5.40;99.90
4604;DHT22;2314;48.272;11.562;2023-12-14T04:16:08;5.40;99.90
4604;DHT22;2314;48.272;11.562;2023-12-14T04:18:35;5.40;99.90
4604;DHT22;2314;48.272;11.562;2023-12-14T04:21:03;5.40;99.90
4604;DHT22;2314;48.272;11.562;2023-12-14T04:23:33;5.40;99.90
4604;DHT22;2314;48.272;11.562;2023-12-14T04:26:00;5.40;99.90
4604;DHT22;2314;48.272;11.562;2023-12-14T04:28:27;5.40;99.90
4604;DHT22;2314;48.272;11.562;2023-12-14T04:30:53;5.40;99.90
4604;DHT22;2314;48.272;11.562;2023-12-14T04:33:20;5.30;99.90
4604;DHT22;2314;48.272;11.562;2023-12-14T04:35:47;5.30;99.90
4604;DHT22;2314;48.272;11.562;2023-12-14T04:38:14;5.30;99.90
4604;DHT22;2314;48.272;11.562;2023-12-14T04:40:43;5.30;99.90
4604;DHT22;2314;48.272;11.562;2023-12-14T04:43:10;5.30;99.90
4604;DHT22;2314;48.272;11.562;2023-12-14T04:45:38;5.30;99.90
4604;DHT22;2314;48.272;11.562;2023-12-14T04:48:05;5.30;99.90
4604;DHT22;2314;48.272;11.562;2023-12-14T04:50:32;5.30;99.90
4604;DHT22;2314;48.272;11.562;2023-12-14T04:52:59;5.30;99.90
4604;DHT22;2314;48.272;11.562;2023-12-14T04:55:26;5.30;99.90
4604;DHT22;2314;48.272;11.562;2023-12-14T04:57:54;5.30;99.90
4604;DHT22;2314;48.272;11.562;2023-12-14T05:00:22;5.30;99.90
4604;DHT22;2314;48.272;11.562;2023-12-14T05:02:49;5.20;99.90
4604;DHT22;2314;48.272;11.562;2023-12-14T05:05:16;5.30;99.90
4604;DHT22;2314;48.272;11.562;2023-12-14T05:07:43;5.20;99.90
4604;DHT22;2314;48.272;11.562;2023-12-14T05:10:10;5.20;99.90
4604;DHT22;2314;48.272;11.562;2023-12-14T05:12:37;5.20;99.90
4604;DHT22;2314;48.272;11.562;2023-12-14T05:15:06;5.20;99.90
4604;DHT22;2314;48.272;11.562;2023-12-14T05:17:34;5.20;99.90
4604;DHT22;2314;48.272;11.562;2023-12-14T05:20:02;5.20;99.90
4604;DHT22;2314;48.272;11.562;2023-12-14T05:22:30;5.10;99.90
4604;DHT22;2314;48.272;11.562;2023-12-14T05:24:58;5.20;99.90
4604;DHT22;2314;48.272;11.562;2023-12-14T05:27:25;5.20;99.90
4604;DHT22;2314;48.272;11.562;2023-12-14T05:29:52;5.20;99.90
4604;DHT22;2314;48.272;11.562;2023-12-14T05:32:20;5.20;99.90
4604;DHT22;2314;48.272;11.562;2023-12-14T05:34:47;5.10;99.90
4604;DHT22;2314;48.272;11.562;2023-12-14T05:37:14;5.10;99.90
4604;DHT22;2314;48.272;11.562;2023-12-14T05:39:41;5.10;99.90
4604;DHT22;2314;48.272;11.562;2023-12-14T05:42:10;5.10;99.90
4604;DHT22;2314;48.272;11.562;2023-12-14T05:44:37;5.10;99.90
4604;DHT22;2314;48.272;11.562;2023-12-14T05:47:04;5.10;99.90
4604;DHT22;2314;48.272;11.562;2023-12-14T05:49:33;5.10;99.90
4604;DHT22;2314;48.272;11.562;2023-12-14T05:52:00;5.10;99.90
4604;DHT22;2314;48.272;11.562;2023-12-14T05:54:27;5.10;99.90
4604;DHT22;2314;48.272;11.562;2023-12-14T05:56:54;5.10;99.90
4604;DHT22;2314;48.272;11.562;2023-12-14T05:59:21;5.10;99.90
4604;DHT22;2314;48.272;11.562;2023-12-14T06:01:48;5.10;99.90
4604;DHT22;2314;48.272;11.562;2023-12-14T06:04:15;5.10;99.90
4604;DHT22;2314;48.272;11.562;2023-12-14T06:06:43;5.10;99.90
4604;DHT22;2314;48.272;11.562;2023-12-14T06:09:10;5.00;99.90
4604;DHT22;2314;48.272;11.562;2023-12-14T06:11:37;5.00;99.90
4604;DHT22;2314;48.272;11.562;2023-12-14T06:14:04;5.00;99.90
4604;DHT22;2314;48.272;11.562;2023-12-14T06:16:31;5.00;99.90
4604;DHT22;2314;48.272;11.562;2023-12-14T06:18:58;4.90;99.90
4604;DHT22;2314;48.272;11.562;2023-12-14T06:21:25;4.90;99.90
4604;DHT22;2314;48.272;11.562;2023-12-14T06:23:55;5.00;99.90
4604;DHT22;2314;48.272;11.562;2023-12-14T06:26:22;4.90;99.90
4604;DHT22;2314;48.272;11.562;2023-12-14T06:28:49;4.90;99.90
4604;DHT22;2314;48.272;11.562;2023-12-14T06:31:17;4.90;99.90
4604;DHT22;2314;48.272;11.562;2023-12-14T06:33:45;4.80;99.90
4604;DHT22;2314;48.272;11.562;2023-12-14T06:36:12;4.80;99.90
4604;DHT22;2314;48.272;11.562;2023-12-14T06:38:39;4.70;99.90
4604;DHT22;2314;48.272;11.562;2023-12-14T06:41:08;4.70;99.90
4604;DHT22;2314;48.272;11.562;2023-12-14T06:43:35;4.60;99.90
4604;DHT22;2314;48.272;11.562;2023-12-14T06:46:02;4.60;99.90
4604;DHT22;2314;48.272;11.562;2023-12-14T06:48:29;4.60;99.90
4604;DHT22;2314;48.272;11.562;2023-12-14T06:50:56;4.60;99.90
4604;DHT22;2314;48.272;11.562;2023-12-14T06:53:24;4.70;99.90
4604;DHT22;2314;48.272;11.562;2023-12-14T06:55:51;4.70;99.90
4604;DHT22;2314;48.272;11.562;2023-12-14T06:58:20;4.70;99.90
4604;DHT22;2314;48.272;11.562;2023-12-14T07:00:47;4.60;99.90
4604;DHT22;2314;48.272;11.562;2023-12-14T07:03:14;4.70;99.90
4604;DHT22;2314;48.272;11.562;2023-12-14T07:05:41;4.70;99.90
4604;DHT22;2314;48.272;11.562;2023-12-14T07:08:08;4.70;99.90
4604;DHT22;2314;48.272;11.562;2023-12-14T07:10:40;4.80;99.90
4604;DHT22;2314;48.272;11.562;2023-12-14T07:13:07;4.80;99.90
4604;DHT22;2314;48.272;11.562;2023-12-14T07:15:36;4.90;99.90
4604;DHT22;2314;48.272;11.562;2023-12-14T07:18:03;4.90;99.90
4604;DHT22;2314;48.272;11.562;2023-12-14T07:20:30;5.00;99.90
4604;DHT22;2314;48.272;11.562;2023-12-14T07:22:57;5.10;99.90
4604;DHT22;2314;48.272;11.562;2023-12-14T07:25:24;5.10;99.90
4604;DHT22;2314;48.272;11.562;2023-12-14T07:27:51;5.10;99.90
4604;DHT22;2314;48.272;11.562;2023-12-14T07:30:18;5.10;99.90
4604;DHT22;2314;48.272;11.562;2023-12-14T07:32:47;5.10;99.90
4604;DHT22;2314;48.272;11.562;2023-12-14T07:35:14;5.10;99.90
4604;DHT22;2314;48.272;11.562;2023-12-14T07:37:41;5.20;99.90
4604;DHT22;2314;48.272;11.562;2023-12-14T07:40:08;5.20;99.90
4604;DHT22;2314;48.272;11.562;2023-12-14T07:42:36;5.20;99.90
4604;DHT22;2314;48.272;11.562;2023-12-14T07:45:03;5.30;99.90
4604;DHT22;2314;48.272;11.562;2023-12-14T07:47:31;5.30;99.90
4604;DHT22;2314;48.272;11.562;2023-12-14T07:50:03;5.40;99.90
4604;DHT22;2314;48.272;11.562;2023-12-14T07:52:31;5.50;99.90
4604;DHT22;2314;48.272;11.562;2023-12-14T07:54:58;5.50;99.90
4604;DHT22;2314;48.272;11.562;2023-12-14T07:57:25;5.60;99.90
4604;DHT22;2314;48.272;11.562;2023-12-14T07:59:52;5.60;99.90
4604;DHT22;2314;48.272;11.562;2023-12-14T08:02:19;5.70;99.90
4604;DHT22;2314;48.272;11.562;2023-12-14T08:04:46;5.80;99.90
4604;DHT22;2314;48.272;11.562;2023-12-14T08:07:14;5.80;99.90
4604;DHT22;2314;48.272;11.562;2023-12-14T08:09:41;5.80;99.90
4604;DHT22;2314;48.272;11.562;2023-12-14T08:12:08;5.90;99.90
4604;DHT22;2314;48.272;11.562;2023-12-14T08:14:36;5.90;99.90
4604;DHT22;2314;48.272;11.562;2023-12-14T08:17:06;5.90;99.90
4604;DHT22;2314;48.272;11.562;2023-12-14T08:19:33;5.90;99.90
4604;DHT22;2314;48.272;11.562;2023-12-14T08:22:00;5.90;99.90
4604;DHT22;2314;48.272;11.562;2023-12-14T08:24:29;5.90;99.90
4604;DHT22;2314;48.272;11.562;2023-12-14T08:26:56;5.90;99.90
4604;DHT22;2314;48.272;11.562;2023-12-14T08:29:23;5.90;99.90
4604;DHT22;2314;48.272;11.562;2023-12-14T08:31:50;5.90;99.90
4604;DHT22;2314;48.272;11.562;2023-12-14T08:34:17;5.90;99.90
4604;DHT22;2314;48.272;11.562;2023-12-14T08:36:44;6.00;99.90
4604;DHT22;2314;48.272;11.562;2023-12-14T08:39:11;6.10;99.90
4604;DHT22;2314;48.272;11.562;2023-12-14T08:41:40;6.10;99.90
4604;DHT22;2314;48.272;11.562;2023-12-14T08:44:07;6.20;99.90
4604;DHT22;2314;48.272;11.562;2023-12-14T08:46:41;6.20;99.90
4604;DHT22;2314;48.272;11.562;2023-12-14T08:49:10;6.20;99.90
4604;DHT22;2314;48.272;11.562;2023-12-14T08:51:38;6.20;99.90
4604;DHT22;2314;48.272;11.562;2023-12-14T08:54:05;6.30;99.90
4604;DHT22;2314;48.272;11.562;2023-12-14T08:56:33;6.30;99.90
4604;DHT22;2314;48.272;11.562;2023-12-14T08:59:01;6.40;99.90
4604;DHT22;2314;48.272;11.562;2023-12-14T09:01:33;6.40;99.90
4604;DHT22;2314;48.272;11.562;2023-12-14T09:04:00;6.50;99.90
4604;DHT22;2314;48.272;11.562;2023-12-14T09:06:27;6.50;99.90
4604;DHT22;2314;48.272;11.562;2023-12-14T09:08:54;6.60;99.90
4604;DHT22;2314;48.272;11.562;2023-12-14T09:11:21;6.60;99.90
4604;DHT22;2314;48.272;11.562;2023-12-14T09:13:48;6.60;99.90
4604;DHT22;2314;48.272;11.562;2023-12-14T09:16:17;6.60;99.90
4604;DHT22;2314;48.272;11.562;2023-12-14T09:18:44;6.70;99.90
4604;DHT22;2314;48.272;11.562;2023-12-14T09:21:11;6.60;99.90
4604;DHT22;2314;48.272;11.562;2023-12-14T09:23:40;6.60;99.90
4604;DHT22;2314;48.272;11.562;2023-12-14T09:26:07;6.60;99.90
4604;DHT22;2314;48.272;11.562;2023-12-14T09:28:36;6.60;99.90
4604;DHT22;2314;48.272;11.562;2023-12-14T09:31:03;6.60;99.90
4604;DHT22;2314;48.272;11.562;2023-12-14T09:33:32;6.60;99.90
4604;DHT22;2314;48.272;11.562;2023-12-14T09:35:59;6.50;99.90
4604;DHT22;2314;48.272;11.562;2023-12-14T09:38:26;6.60;99.90
4604;DHT22;2314;48.272;11.562;2023-12-14T09:40:53;6.60;99.90
4604;DHT22;2314;48.272;11.562;2023-12-14T09:43:20;6.70;99.90
4604;DHT22;2314;48.272;11.562;2023-12-14T09:45:49;6.70;99.90
4604;DHT22;2314;48.272;11.562;2023-12-14T09:48:17;6.70;99.90
4604;DHT22;2314;48.272;11.562;2023-12-14T09:50:48;6.80;99.90
4604;DHT22;2314;48.272;11.562;2023-12-14T09:53:16;6.80;99.90
4604;DHT22;2314;48.272;11.562;2023-12-14T09:55:43;6.80;99.90
4604;DHT22;2314;48.272;11.562;2023-12-14T09:58:11;6.80;99.90
4604;DHT22;2314;48.272;11.562;2023-12-14T10:00:39;6.80;99.90
4604;DHT22;2314;48.272;11.562;2023-12-14T10:03:21;6.80;99.90
4604;DHT22;2314;48.272;11.562;2023-12-14T10:05:50;6.70;99.90
4604;DHT22;2314;48.272;11.562;2023-12-14T10:08:18;6.70;99.90
4604;DHT22;2314;48.272;11.562;2023-12-14T10:10:47;6.70;99.90
4604;DHT22;2314;48.272;11.562;2023-12-14T10:13:16;6.80;99.90
4604;DHT22;2314;48.272;11.562;2023-12-14T10:15:44;6.80;99.90
4604;DHT22;2314;48.272;11.562;2023-12-14T10:18:14;6.90;99.90
4604;DHT22;2314;48.272;11.562;2023-12-14T10:20:50;6.80;99.90
4604;DHT22;2314;48.272;11.562;2023-12-14T10:23:17;6.60;99.90
4604;DHT22;2314;48.272;11.562;2023-12-14T10:25:45;6.60;99.90
4604;DHT22;2314;48.272;11.562;2023-12-14T10:28:12;6.40;99.90
4604;DHT22;2314;48.272;11.562;2023-12-14T10:30:40;6.30;99.90
4604;DHT22;2314;48.272;11.562;2023-12-14T10:33:07;6.20;99.90
4604;DHT22;2314;48.272;11.562;2023-12-14T10:35:34;6.30;99.90
4604;DHT22;2314;48.272;11.562;2023-12-14T10:38:04;6.50;99.90
4604;DHT22;2314;48.272;11.562;2023-12-14T10:40:32;6.70;99.90
4604;DHT22;2314;48.272;11.562;2023-12-14T10:43:00;7.00;99.90
4604;DHT22;2314;48.272;11.562;2023-12-14T10:45:30;7.30;99.90
4604;DHT22;2314;48.272;11.562;2023-12-14T10:47:59;7.50;99.90
4604;DHT22;2314;48.272;11.562;2023-12-14T10:50:28;7.60;99.90
4604;DHT22;2314;48.272;11.562;2023-12-14T10:52:57;7.80;99.90
4604;DHT22;2314;48.272;11.562;2023-12-14T10:55:29;8.00;99.90
4604;DHT22;2314;48.272;11.562;2023-12-14T10:58:00;8.20;99.90
4604;DHT22;2314;48.272;11.562;2023-12-14T11:00:27;8.30;99.90
4604;DHT22;2314;48.272;11.562;2023-12-14T11:02:54;8.30;99.90
4604;DHT22;2314;48.272;11.562;2023-12-14T11:05:22;8.20;99.90
4604;DHT22;2314;48.272;11.562;2023-12-14T11:07:55;8.00;99.90
4604;DHT22;2314;48.272;11.562;2023-12-14T11:10:28;8.00;99.90
4604;DHT22;2314;48.272;11.562;2023-12-14T11:13:06;8.10;99.90
4604;DHT22;2314;48.272;11.562;2023-12-14T11:15:35;8.00;99.90
4604;DHT22;2314;48.272;11.562;2023-12-14T11:18:36;8.20;99.90
4604;DHT22;2314;48.272;11.562;2023-12-14T11:21:03;8.30;99.90
4604;DHT22;2314;48.272;11.562;2023-12-14T11:23:36;8.30;99.90
4604;DHT22;2314;48.272;11.562;2023-12-14T11:26:15;8.30;99.90
4604;DHT22;2314;48.272;11.562;2023-12-14T11:28:50;8.20;99.90
4604;DHT22;2314;48.272;11.562;2023-12-14T11:31:17;8.10;99.90
4604;DHT22;2314;48.272;11.562;2023-12-14T11:33:44;8.10;99.90
4604;DHT22;2314;48.272;11.562;2023-12-14T11:36:13;8.10;99.90
4604;DHT22;2314;48.272;11.562;2023-12-14T11:38:41;8.10;99.90
4604;DHT22;2314;48.272;11.562;2023-12-14T11:41:10;8.10;99.90
4604;DHT22;2314;48.272;11.562;2023-12-14T11:43:41;8.00;99.90
4604;DHT22;2314;48.272;11.562;2023-12-14T11:46:09;7.90;99.90
4604;DHT22;2314;48.272;11.562;2023-12-14T11:48:36;7.80;99.90
4604;DHT22;2314;48.272;11.562;2023-12-14T11:51:03;7.70;99.90
4604;DHT22;2314;48.272;11.562;2023-12-14T11:53:31;7.70;99.90
4604;DHT22;2314;48.272;11.562;2023-12-14T11:55:59;7.70;99.90
4604;DHT22;2314;48.272;11.562;2023-12-14T11:58:31;7.80;99.90
4604;DHT22;2314;48.272;11.562;2023-12-14T12:01:11;7.80;99.90
4604;DHT22;2314;48.272;11.562;2023-12-14T12:03:39;7.70;99.90
4604;DHT22;2314;48.272;11.562;2023-12-14T12:06:06;7.70;99.90
4604;DHT22;2314;48.272;11.562;2023-12-14T12:08:40;7.70;99.90
4604;DHT22;2314;48.272;11.562;2023-12-14T12:11:08;7.70;99.90
4604;DHT22;2314;48.272;11.562;2023-12-14T12:13:36;7.70;99.90
4604;DHT22;2314;48.272;11.562;2023-12-14T12:16:04;7.80;99.90
4604;DHT22;2314;48.272;11.562;2023-12-14T12:18:31;7.80;99.90
4604;DHT22;2314;48.272;11.562;2023-12-14T12:20:58;7.70;99.90
4604;DHT22;2314;48.272;11.562;2023-12-14T12:23:29;7.70;99.90
4604;DHT22;2314;48.272;11.562;2023-12-14T12:25:59;7.70;99.90
4604;DHT22;2314;48.272;11.562;2023-12-14T12:28:26;7.60;99.90
4604;DHT22;2314;48.272;11.562;2023-12-14T12:30:55;7.60;99.90
4604;DHT22;2314;48.272;11.562;2023-12-14T12:33:22;7.60;99.90
4604;DHT22;2314;48.272;11.562;2023-12-14T12:35:49;7.70;99.90
4604;DHT22;2314;48.272;11.562;2023-12-14T12:38:16;7.80;99.90
4604;DHT22;2314;48.272;11.562;2023-12-14T12:40:44;7.80;99.90
4604;DHT22;2314;48.272;11.562;2023-12-14T12:43:12;7.90;99.90
4604;DHT22;2314;48.272;11.562;2023-12-14T12:45:40;7.90;99.90
4604;DHT22;2314;48.272;11.562;2023-12-14T12:48:08;7.90;99.90
4604;DHT22;2314;48.272;11.562;2023-12-14T12:50:36;8.00;99.90
4604;DHT22;2314;48.272;11.562;2023-12-14T12:53:03;7.90;99.90
4604;DHT22;2314;48.272;11.562;2023-12-14T12:55:30;7.90;99.90
4604;DHT22;2314;48.272;11.562;2023-12-14T12:57:57;7.90;99.90
4604;DHT22;2314;48.272;11.562;2023-12-14T13:00:30;7.90;99.90
4604;DHT22;2314;48.272;11.562;2023-12-14T13:02:57;7.80;99.90
4604;DHT22;2314;48.272;11.562;2023-12-14T13:05:27;7.80;99.90
4604;DHT22;2314;48.272;11.562;2023-12-14T13:07:54;7.70;99.90
4604;DHT22;2314;48.272;11.562;2023-12-14T13:10:23;7.70;99.90
4604;DHT22;2314;48.272;11.562;2023-12-14T13:12:52;7.60;99.90
4604;DHT22;2314;48.272;11.562;2023-12-14T13:15:19;7.60;99.90
4604;DHT22;2314;48.272;11.562;2023-12-14T13:17:49;7.60;99.90
4604;DHT22;2314;48.272;11.562;2023-12-14T13:20:16;7.60;99.90
4604;DHT22;2314;48.272;11.562;2023-12-14T13:22:45;7.60;99.90
4604;DHT22;2314;48.272;11.562;2023-12-14T13:25:12;7.60;99.90
4604;DHT22;2314;48.272;11.562;2023-12-14T13:27:39;7.60;99.90
4604;DHT22;2314;48.272;11.562;2023-12-14T13:30:15;7.60;99.90
4604;DHT22;2314;48.272;11.562;2023-12-14T13:32:43;7.60;99.90
4604;DHT22;2314;48.272;11.562;2023-12-14T13:35:10;7.70;99.90
4604;DHT22;2314;48.272;11.562;2023-12-14T13:37:39;7.70;99.90
4604;DHT22;2314;48.272;11.562;2023-12-14T13:40:09;7.70;99.90
4604;DHT22;2314;48.272;11.562;2023-12-14T13:42:36;7.70;99.90
4604;DHT22;2314;48.272;11.562;2023-12-14T13:45:04;7.70;99.90
4604;DHT22;2314;48.272;11.562;2023-12-14T13:47:31;7.70;99.90
4604;DHT22;2314;48.272;11.562;2023-12-14T13:49:58;7.60;99.90
4604;DHT22;2314;48.272;11.562;2023-12-14T13:52:25;7.60;99.90
4604;DHT22;2314;48.272;11.562;2023-12-14T13:54:53;7.60;99.90
4604;DHT22;2314;48.272;11.562;2023-12-14T13:57:22;7.60;99.90
4604;DHT22;2314;48.272;11.562;2023-12-14T13:59:49;7.50;99.90
4604;DHT22;2314;48.272;11.562;2023-12-14T14:02:16;7.50;99.90
4604;DHT22;2314;48.272;11.562;2023-12-14T14:04:43;7.50;99.90
4604;DHT22;2314;48.272;11.562;2023-12-14T14:07:10;7.50;99.90
4604;DHT22;2314;48.272;11.562;2023-12-14T14:09:37;7.60;99.90
4604;DHT22;2314;48.272;11.562;2023-12-14T14:12:05;7.50;99.90
4604;DHT22;2314;48.272;11.562;2023-12-14T14:14:34;7.60;99.90
4604;DHT22;2314;48.272;11.562;2023-12-14T14:17:01;7.70;99.90
4604;DHT22;2314;48.272;11.562;2023-12-14T14:19:29;7.70;99.90
4604;DHT22;2314;48.272;11.562;2023-12-14T14:21:56;7.70;99.90
4604;DHT22;2314;48.272;11.562;2023-12-14T14:24:23;7.70;99.90
4604;DHT22;2314;48.272;11.562;2023-12-14T14:26:50;7.70;99.90
4604;DHT22;2314;48.272;11.562;2023-12-14T14:29:17;7.60;99.90
4604;DHT22;2314;48.272;11.562;2023-12-14T14:31:46;7.50;99.90
4604;DHT22;2314;48.272;11.562;2023-12-14T14:34:13;7.40;99.90
4604;DHT22;2314;48.272;11.562;2023-12-14T14:36:40;7.40;99.90
4604;DHT22;2314;48.272;11.562;2023-12-14T14:39:07;7.30;99.90
4604;DHT22;2314;48.272;11.562;2023-12-14T14:41:35;7.10;99.90
4604;DHT22;2314;48.272;11.562;2023-12-14T14:44:02;7.00;99.90
4604;DHT22;2314;48.272;11.562;2023-12-14T14:46:30;6.90;99.90
4604;DHT22;2314;48.272;11.562;2023-12-14T14:48:58;6.70;99.90
4604;DHT22;2314;48.272;11.562;2023-12-14T14:51:27;6.60;99.90
4604;DHT22;2314;48.272;11.562;2023-12-14T14:53:55;6.50;99.90
4604;DHT22;2314;48.272;11.562;2023-12-14T14:56:22;6.30;99.90
4604;DHT22;2314;48.272;11.562;2023-12-14T14:58:49;6.20;99.90
4604;DHT22;2314;48.272;11.562;2023-12-14T15:01:16;6.10;99.90
4604;DHT22;2314;48.272;11.562;2023-12-14T15:03:44;6.00;99.90
4604;DHT22;2314;48.272;11.562;2023-12-14T15:06:12;5.90;99.90
4604;DHT22;2314;48.272;11.562;2023-12-14T15:08:39;5.90;99.90
4604;DHT22;2314;48.272;11.562;2023-12-14T15:11:06;5.90;99.90
4604;DHT22;2314;48.272;11.562;2023-12-14T15:13:36;5.90;99.90
4604;DHT22;2314;48.272;11.562;2023-12-14T15:16:04;6.00;99.90
4604;DHT22;2314;48.272;11.562;2023-12-14T15:18:32;6.00;99.90
4604;DHT22;2314;48.272;11.562;2023-12-14T15:21:06;6.00;99.90
4604;DHT22;2314;48.272;11.562;2023-12-14T15:23:35;6.00;99.90
4604;DHT22;2314;48.272;11.562;2023-12-14T15:26:02;6.00;99.90
4604;DHT22;2314;48.272;11.562;2023-12-14T15:28:30;6.00;99.90
4604;DHT22;2314;48.272;11.562;2023-12-14T15:30:57;6.00;99.90
4604;DHT22;2314;48.272;11.562;2023-12-14T15:33:23;6.00;99.90
4604;DHT22;2314;48.272;11.562;2023-12-14T15:35:51;6.00;99.90
4604;DHT22;2314;48.272;11.562;2023-12-14T15:38:18;6.10;99.90
4604;DHT22;2314;48.272;11.562;2023-12-14T15:40:46;6.10;99.90
4604;DHT22;2314;48.272;11.562;2023-12-14T15:43:13;6.10;99.90
4604;DHT22;2314;48.272;11.562;2023-12-14T15:45:41;6.10;99.90
4604;DHT22;2314;48.272;11.562;2023-12-14T15:48:09;6.10;99.90
4604;DHT22;2314;48.272;11.562;2023-12-14T15:50:36;6.10;99.90
4604;DHT22;2314;48.272;11.562;2023-12-14T15:53:04;6.10;99.90
4604;DHT22;2314;48.272;11.562;2023-12-14T15:55:34;6.10;99.90
4604;DHT22;2314;48.272;11.562;2023-12-14T15:58:03;6.10;99.90
4604;DHT22;2314;48.272;11.562;2023-12-14T16:00:30;6.10;99.90
4604;DHT22;2314;48.272;11.562;2023-12-14T16:02:58;6.10;99.90
4604;DHT22;2314;48.272;11.562;2023-12-14T16:05:25;6.10;99.90
4604;DHT22;2314;48.272;11.562;2023-12-14T16:07:54;6.10;99.90
4604;DHT22;2314;48.272;11.562;2023-12-14T16:10:22;6.10;99.90